Time,TemperatureF,DewpointF,PressureIn,WindDirection,WindDirectionDegrees,WindSpeedMPH,WindSpeedGustMPH,Humidity,HourlyPrecipIn,Conditions,Clouds,dailyrainin,SoftwareType,DateUTC
2015-02-01 00:03:00,54.1,47.1,26.88,NW,315,0.0,-999.0,77,-99.99,,,0.00,meteohub,2015-02-01 05:03:00,
2015-02-01 00:08:00,54.3,47.7,26.88,NW,315,0.0,-999.0,78,-99.99,,,0.00,meteohub,2015-02-01 05:08:00,
2015-02-01 00:13:00,54.5,47.8,26.88,NW,315,0.0,-999.0,78,-99.99,,,0.00,meteohub,2015-02-01 05:13:00,
2015-02-01 00:18:00,54.7,48.4,26.87,NW,315,0.0,-999.0,79,-99.99,,,0.00,meteohub,2015-02-01 05:18:00,
2015-02-01 00:23:00,54.7,48.4,26.88,NW,315,0.0,-999.0,79,-99.99,,,0.00,meteohub,2015-02-01 05:23:00,
2015-02-01 00:28:00,54.5,48.2,26.88,NW,315,1.0,-999.0,79,-99.99,,,0.00,meteohub,2015-02-01 05:28:00,
2015-02-01 00:33:00,54.1,47.8,26.87,NW,315,1.0,-999.0,79,-99.99,,,0.00,meteohub,2015-02-01 05:33:00,
2015-02-01 00:38:00,54.0,47.7,26.88,NW,315,1.0,-999.0,79,-99.99,,,0.00,meteohub,2015-02-01 05:38:00,
2015-02-01 00:43:00,53.6,47.3,26.87,NW,315,0.0,-999.0,79,-99.99,,,0.00,meteohub,2015-02-01 05:43:00,
2015-02-01 00:48:00,53.2,47.3,26.87,NW,315,0.0,-999.0,80,-99.99,,,0.00,meteohub,2015-02-01 05:48:00,
2015-02-01 00:53:00,53.1,47.3,26.87,NW,315,0.0,-999.0,81,-99.99,,,0.00,meteohub,2015-02-01 05:53:00,
2015-02-01 00:58:00,53.2,47.5,26.87,NW,315,1.0,-999.0,81,-99.99,,,0.00,meteohub,2015-02-01 05:58:00,
2015-02-01 01:03:00,53.2,47.5,26.87,NW,315,0.0,-999.0,81,-99.99,,,0.00,meteohub,2015-02-01 06:03:00,
2015-02-01 01:08:00,53.2,47.8,26.87,NW,315,0.0,-999.0,82,-99.99,,,0.00,meteohub,2015-02-01 06:08:00,
2015-02-01 01:13:00,53.2,47.8,26.87,NW,315,0.0,-999.0,82,-99.99,,,0.00,meteohub,2015-02-01 06:13:00,
2015-02-01 01:18:00,53.1,47.7,26.87,NW,315,0.0,-999.0,82,-99.99,,,0.00,meteohub,2015-02-01 06:18:00,
2015-02-01 01:23:00,53.1,48.0,26.87,NW,315,0.0,-999.0,83,-99.99,,,0.00,meteohub,2015-02-01 06:23:00,
2015-02-01 01:28:00,53.1,48.0,26.87,NW,315,2.0,-999.0,83,-99.99,,,0.00,meteohub,2015-02-01 06:28:00,
2015-02-01 01:33:00,53.1,48.0,26.87,NW,315,2.0,-999.0,83,-99.99,,,0.00,meteohub,2015-02-01 06:33:00,
2015-02-01 01:38:00,53.1,48.4,26.87,NW,315,1.0,-999.0,84,-99.99,,,0.00,meteohub,2015-02-01 06:38:00,
2015-02-01 01:43:00,53.2,48.6,26.86,NW,315,0.0,-999.0,84,-99.99,,,0.00,meteohub,2015-02-01 06:43:00,
2015-02-01 01:48:00,53.1,48.4,26.87,NW,315,0.0,-999.0,84,-99.99,,,0.00,meteohub,2015-02-01 06:48:00,
2015-02-01 01:53:00,53.2,48.6,26.87,NW,315,1.0,-999.0,84,-99.99,,,0.00,meteohub,2015-02-01 06:53:00,
2015-02-01 01:58:00,53.2,48.6,26.87,NW,315,0.0,-999.0,84,-99.99,,,0.00,meteohub,2015-02-01 06:58:00,
2015-02-01 02:04:00,53.2,48.9,26.87,NW,315,0.0,-999.0,85,-99.99,,,0.00,meteohub,2015-02-01 07:04:00,
2015-02-01 02:09:00,53.6,49.3,26.86,NW,315,0.0,-999.0,85,-99.99,,,0.00,meteohub,2015-02-01 07:09:00,
2015-02-01 02:14:00,53.6,49.3,26.87,NW,315,0.0,-999.0,85,-99.99,,,0.00,meteohub,2015-02-01 07:14:00,
2015-02-01 02:19:00,54.0,49.8,26.86,NW,315,0.0,-999.0,86,-99.99,,,0.00,meteohub,2015-02-01 07:19:00,
2015-02-01 02:24:00,54.3,50.2,26.87,NW,315,0.0,-999.0,86,-99.99,,,0.00,meteohub,2015-02-01 07:24:00,
2015-02-01 02:29:00,54.7,50.5,26.86,NW,315,0.0,-999.0,86,-99.99,,,0.00,meteohub,2015-02-01 07:29:00,
2015-02-01 02:34:00,55.0,50.9,26.87,NW,315,0.0,-999.0,86,-99.99,,,0.00,meteohub,2015-02-01 07:34:00,
2015-02-01 02:39:00,55.4,51.3,26.87,NW,315,1.0,-999.0,86,-99.99,,,0.00,meteohub,2015-02-01 07:39:00,
2015-02-01 02:44:00,55.8,51.6,26.86,NW,315,1.0,-999.0,86,-99.99,,,0.00,meteohub,2015-02-01 07:44:00,
2015-02-01 02:49:00,56.1,52.3,26.87,NW,315,0.0,-999.0,87,-99.99,,,0.00,meteohub,2015-02-01 07:49:00,
2015-02-01 02:54:00,56.3,52.2,26.86,NW,315,0.0,-999.0,86,-99.99,,,0.00,meteohub,2015-02-01 07:54:00,
2015-02-01 02:59:00,56.5,52.3,26.86,NW,315,0.0,-999.0,86,-99.99,,,0.00,meteohub,2015-02-01 07:59:00,
2015-02-01 03:04:00,56.5,52.3,26.87,NW,315,0.0,-999.0,86,-99.99,,,0.00,meteohub,2015-02-01 08:04:00,
2015-02-01 03:09:00,56.5,52.3,26.86,NW,315,1.0,-999.0,86,-99.99,,,0.00,meteohub,2015-02-01 08:09:00,
2015-02-01 03:14:00,56.3,51.8,26.86,NW,315,0.0,-999.0,85,-99.99,,,0.00,meteohub,2015-02-01 08:14:00,
2015-02-01 03:19:00,56.1,51.6,26.87,NW,315,0.0,-999.0,85,-99.99,,,0.00,meteohub,2015-02-01 08:19:00,
2015-02-01 03:24:00,55.9,51.4,26.87,NW,315,0.0,-999.0,85,-99.99,,,0.00,meteohub,2015-02-01 08:24:00,
2015-02-01 03:30:00,55.8,51.3,26.86,NW,315,0.0,-999.0,85,-99.99,,,0.00,meteohub,2015-02-01 08:30:00,
2015-02-01 03:36:00,55.4,50.9,26.86,NW,315,0.0,-999.0,85,-99.99,,,0.00,meteohub,2015-02-01 08:36:00,
2015-02-01 03:41:00,55.2,50.7,26.87,NW,315,0.0,-999.0,85,-99.99,,,0.00,meteohub,2015-02-01 08:41:00,
2015-02-01 03:46:00,55.0,50.5,26.86,NW,315,0.0,-999.0,85,-99.99,,,0.00,meteohub,2015-02-01 08:46:00,
2015-02-01 03:51:00,54.7,50.5,26.86,NW,315,0.0,-999.0,86,-99.99,,,0.00,meteohub,2015-02-01 08:51:00,
2015-02-01 03:56:00,54.3,50.2,26.87,NW,315,0.0,-999.0,86,-99.99,,,0.00,meteohub,2015-02-01 08:56:00,
2015-02-01 04:01:00,54.3,50.2,26.86,NW,315,0.0,-999.0,86,-99.99,,,0.00,meteohub,2015-02-01 09:01:00,
2015-02-01 04:06:00,53.8,49.6,26.86,NW,315,0.0,-999.0,86,-99.99,,,0.00,meteohub,2015-02-01 09:06:00,
2015-02-01 04:11:00,53.6,49.5,26.86,NW,315,0.0,-999.0,86,-99.99,,,0.00,meteohub,2015-02-01 09:11:00,
2015-02-01 04:16:00,53.4,49.6,26.86,NW,315,0.0,-999.0,87,-99.99,,,0.00,meteohub,2015-02-01 09:16:00,
2015-02-01 04:21:00,53.4,49.6,26.86,NW,315,0.0,-999.0,87,-99.99,,,0.00,meteohub,2015-02-01 09:21:00,
2015-02-01 04:26:00,53.2,49.5,26.86,NW,315,0.0,-999.0,87,-99.99,,,0.00,meteohub,2015-02-01 09:26:00,
2015-02-01 04:31:00,53.1,49.6,26.85,NW,315,0.0,-999.0,88,-99.99,,,0.00,meteohub,2015-02-01 09:31:00,
2015-02-01 04:36:00,52.9,49.5,26.86,NW,315,0.0,-999.0,88,-99.99,,,0.00,meteohub,2015-02-01 09:36:00,
2015-02-01 04:41:00,52.7,49.3,26.86,NW,315,0.0,-999.0,88,-99.99,,,0.00,meteohub,2015-02-01 09:41:00,
2015-02-01 04:46:00,52.5,49.1,26.86,NW,315,0.0,-999.0,88,-99.99,,,0.00,meteohub,2015-02-01 09:46:00,
2015-02-01 04:51:00,52.3,48.9,26.85,NW,315,0.0,-999.0,88,-99.99,,,0.00,meteohub,2015-02-01 09:51:00,
2015-02-01 04:56:00,52.3,48.9,26.85,NW,315,0.0,-999.0,88,-99.99,,,0.00,meteohub,2015-02-01 09:56:00,
2015-02-01 05:01:00,52.2,48.7,26.85,NW,315,0.0,-999.0,88,-99.99,,,0.00,meteohub,2015-02-01 10:01:00,
2015-02-01 05:06:00,52.5,49.5,26.86,NW,315,2.0,-999.0,89,-99.99,,,0.00,meteohub,2015-02-01 10:06:00,
2015-02-01 05:11:00,52.7,49.8,26.86,NW,315,0.0,-999.0,90,-99.99,,,0.00,meteohub,2015-02-01 10:11:00,
2015-02-01 05:16:00,53.1,50.2,26.86,NW,315,0.0,-999.0,90,-99.99,,,0.00,meteohub,2015-02-01 10:16:00,
2015-02-01 05:21:00,53.2,50.4,26.86,NW,315,2.0,-999.0,90,-99.99,,,0.00,meteohub,2015-02-01 10:21:00,
2015-02-01 05:26:00,53.4,50.5,26.86,NW,315,0.0,-999.0,90,-99.99,,,0.00,meteohub,2015-02-01 10:26:00,
2015-02-01 05:31:00,53.4,50.9,26.86,NW,315,2.0,-999.0,91,-99.99,,,0.00,meteohub,2015-02-01 10:31:00,
2015-02-01 05:36:00,53.8,51.3,26.86,NW,315,2.0,-999.0,91,-99.99,,,0.00,meteohub,2015-02-01 10:36:00,